createdAt,value
2019-01-12T00:02:21.997Z,19.23
2019-01-12T00:04:48.707Z,17.53
2019-01-12T00:07:15.414Z,15.93
2019-01-12T00:09:42.119Z,16.07
2019-01-12T00:12:08.932Z,22.13
2019-01-12T00:14:35.659Z,15.93
2019-01-12T00:17:02.471Z,16.17
2019-01-12T00:19:29.191Z,18.50
2019-01-12T00:22:15.535Z,22.27
2019-01-12T00:24:42.239Z,17.17
2019-01-12T00:27:09.131Z,21.13
2019-01-12T00:29:36.216Z,19.27
2019-01-12T00:32:03.107Z,16.67
2019-01-12T00:34:30.123Z,16.83
2019-01-12T00:36:56.819Z,20.90
2019-01-12T00:39:23.515Z,14.23
2019-01-12T00:41:50.412Z,16.63
2019-01-12T00:44:17.107Z,14.27
2019-01-12T00:46:44.042Z,14.77
2019-01-12T00:49:10.734Z,16.20
2019-01-12T00:51:37.443Z,13.13
2019-01-12T00:54:04.135Z,16.13
2019-01-12T00:56:30.839Z,13.83
2019-01-12T00:58:57.540Z,14.30
2019-01-12T01:01:24.251Z,9.57
2019-01-12T01:03:50.956Z,12.37
2019-01-12T01:06:17.661Z,9.43
2019-01-12T01:08:44.563Z,9.27
2019-01-12T01:11:11.272Z,12.00
2019-01-12T01:13:38.379Z,9.53
2019-01-12T01:16:05.070Z,11.10
2019-01-12T01:18:31.758Z,12.70
2019-01-12T01:20:58.555Z,9.77
2019-01-12T01:23:25.247Z,14.23
2019-01-12T01:25:51.954Z,13.33
2019-01-12T01:28:18.751Z,17.57
2019-01-12T01:30:45.451Z,10.00
2019-01-12T01:33:12.244Z,13.27
2019-01-12T01:35:38.943Z,14.10
2019-01-12T01:38:05.735Z,12.53
2019-01-12T01:40:32.439Z,12.73
2019-01-12T01:42:59.131Z,11.50
2019-01-12T01:45:25.931Z,16.57
2019-01-12T01:47:52.627Z,10.50
2019-01-12T01:50:19.334Z,11.33
2019-01-12T01:52:46.118Z,10.90
2019-01-12T01:55:12.925Z,10.30
2019-01-12T01:57:39.711Z,9.07
2019-01-12T02:00:10.568Z,9.30
2019-01-12T02:02:37.269Z,9.37
2019-01-12T02:05:04.547Z,10.93
2019-01-12T02:07:31.247Z,8.23
2019-01-12T02:09:57.943Z,6.67
2019-01-12T02:12:24.750Z,8.60
2019-01-12T02:14:51.547Z,6.87
2019-01-12T02:17:18.239Z,7.87
2019-01-12T02:19:45.043Z,8.47
2019-01-12T02:22:11.835Z,11.90
2019-01-12T02:24:38.534Z,6.13
2019-01-12T02:27:05.242Z,8.63
2019-01-12T02:29:32.094Z,9.60
2019-01-12T02:31:58.909Z,6.40
2019-01-12T02:34:25.634Z,6.70
2019-01-12T02:36:52.421Z,5.47
2019-01-12T02:39:19.129Z,7.03
2019-01-12T02:41:45.842Z,8.57
2019-01-12T02:44:12.552Z,6.23
2019-01-12T02:46:39.259Z,8.57
2019-01-12T02:49:06.095Z,4.77
2019-01-12T02:51:32.885Z,8.00
2019-01-12T02:53:59.587Z,4.70
2019-01-12T02:56:26.400Z,6.53
2019-01-12T02:58:53.115Z,8.83
2019-01-12T03:01:19.823Z,14.13
2019-01-12T03:03:46.531Z,4.07
2019-01-12T03:06:13.253Z,6.87
2019-01-12T03:08:40.047Z,12.93
2019-01-12T03:11:06.847Z,7.47
2019-01-12T03:13:33.558Z,3.93
2019-01-12T03:16:00.364Z,7.47
2019-01-12T03:18:27.195Z,8.33
2019-01-12T03:20:53.891Z,8.70
2019-01-12T03:23:20.596Z,8.07
2019-01-12T03:25:47.298Z,7.30
2019-01-12T03:28:14.072Z,5.50
2019-01-12T03:30:40.772Z,5.67
2019-01-12T03:33:07.497Z,7.87
2019-01-12T03:35:34.183Z,6.30
2019-01-12T03:38:00.992Z,5.93
2019-01-12T03:40:27.716Z,8.10
2019-01-12T03:42:54.414Z,4.17
2019-01-12T03:45:21.236Z,6.60
2019-01-12T03:47:48.148Z,8.60
2019-01-12T03:50:16.132Z,5.67
2019-01-12T03:52:43.038Z,5.47
2019-01-12T03:55:10.252Z,6.13
2019-01-12T03:57:36.960Z,5.50
2019-01-12T04:00:07.792Z,4.53
2019-01-12T04:02:34.515Z,6.80
2019-01-12T04:05:01.211Z,6.80
2019-01-12T04:07:28.033Z,6.77
2019-01-12T04:09:54.740Z,9.23
2019-01-12T04:12:21.443Z,5.63
2019-01-12T04:14:48.139Z,8.43
2019-01-12T04:17:14.943Z,8.70
2019-01-12T04:19:41.887Z,6.77
2019-01-12T04:22:08.591Z,10.93
2019-01-12T04:24:35.287Z,10.27
2019-01-12T04:27:01.990Z,7.10
2019-01-12T04:29:29.076Z,9.60
2019-01-12T04:31:55.790Z,9.43
2019-01-12T04:34:22.491Z,10.83
2019-01-12T04:36:49.199Z,13.17
2019-01-12T04:39:16.003Z,7.80
2019-01-12T04:41:42.720Z,8.03
2019-01-12T04:44:09.417Z,11.13
2019-01-12T04:46:36.136Z,12.90
2019-01-12T04:49:03.032Z,9.73
2019-01-12T04:51:29.739Z,9.53
2019-01-12T04:53:56.440Z,11.27
2019-01-12T04:56:23.150Z,10.87
2019-01-12T04:58:49.863Z,11.60
2019-01-12T05:01:16.577Z,11.20
2019-01-12T05:03:43.297Z,16.50
2019-01-12T05:06:09.990Z,13.60
2019-01-12T05:08:36.699Z,15.53
2019-01-12T05:11:03.394Z,18.00
2019-01-12T05:13:30.091Z,19.57
2019-01-12T05:15:56.902Z,20.50
2019-01-12T05:18:23.661Z,20.00
2019-01-12T05:20:50.406Z,21.27
2019-01-12T05:23:17.112Z,24.33
2019-01-12T05:25:48.916Z,25.67
2019-01-12T05:28:12.521Z,23.67
2019-01-12T05:30:39.618Z,26.60
2019-01-12T05:33:06.340Z,25.27
2019-01-12T05:35:33.160Z,23.10
2019-01-12T05:37:59.880Z,23.90
2019-01-12T05:40:26.575Z,29.20
2019-01-12T05:42:53.281Z,28.00
2019-01-12T05:45:19.979Z,27.70
2019-01-12T05:47:46.703Z,29.53
2019-01-12T05:50:13.614Z,25.67
2019-01-12T05:52:40.320Z,25.50
2019-01-12T05:55:07.267Z,24.17
2019-01-12T05:57:34.076Z,27.13
2019-01-12T06:00:00.787Z,27.10
2019-01-12T06:02:27.516Z,29.77
2019-01-12T06:04:54.229Z,30.33
2019-01-12T06:07:20.943Z,25.97
2019-01-12T06:09:47.667Z,28.00
2019-01-12T06:12:14.470Z,31.60
2019-01-12T06:14:41.174Z,26.80
2019-01-12T06:17:08.324Z,27.27
2019-01-12T06:19:35.378Z,31.60
2019-01-12T06:22:02.612Z,29.65
2019-01-12T06:24:29.311Z,27.50
2019-01-12T06:26:56.015Z,30.33
2019-01-12T06:29:22.724Z,29.80
2019-01-12T06:31:49.782Z,27.67
2019-01-12T06:34:16.493Z,33.53
2019-01-12T06:36:43.193Z,36.87
2019-01-12T06:39:09.899Z,34.67
2019-01-12T06:41:36.715Z,35.87
2019-01-12T06:44:03.701Z,34.27
2019-01-12T06:46:30.396Z,33.80
2019-01-12T06:48:57.115Z,36.43
2019-01-12T06:51:23.819Z,36.37
2019-01-12T06:53:50.527Z,34.77
2019-01-12T06:56:17.234Z,37.03
2019-01-12T06:58:43.943Z,40.77
2019-01-12T07:01:10.647Z,42.67
2019-01-12T07:03:37.575Z,36.37
2019-01-12T07:06:04.387Z,34.90
2019-01-12T07:08:31.089Z,39.90
2019-01-12T07:10:57.791Z,33.80
2019-01-12T07:13:24.508Z,36.37
2019-01-12T07:15:51.203Z,35.57
2019-01-12T07:18:18.020Z,37.27
2019-01-12T07:20:44.727Z,37.70
2019-01-12T07:23:11.446Z,34.03
2019-01-12T07:25:38.145Z,32.70
2019-01-12T07:28:04.836Z,34.17
2019-01-12T07:30:31.551Z,37.00
2019-01-12T07:32:58.266Z,35.07
2019-01-12T07:35:25.067Z,36.83
2019-01-12T07:37:51.769Z,38.50
2019-01-12T07:40:18.916Z,32.00
2019-01-12T07:42:45.625Z,34.23
2019-01-12T07:45:12.527Z,37.60
2019-01-12T07:47:39.327Z,31.33
2019-01-12T07:50:07.993Z,34.20
2019-01-12T07:52:34.692Z,30.97
2019-01-12T07:55:01.411Z,34.37
2019-01-12T07:57:28.144Z,31.27
2019-01-12T07:59:54.851Z,26.20
2019-01-12T08:02:21.568Z,30.03
2019-01-12T08:04:48.686Z,33.17
2019-01-12T08:07:15.479Z,28.93
2019-01-12T08:09:42.391Z,29.23
2019-01-12T08:12:09.303Z,29.53
2019-01-12T08:14:36.019Z,32.20
2019-01-12T08:17:02.944Z,30.23
2019-01-12T08:19:29.659Z,33.37
2019-01-12T08:21:56.364Z,31.00
2019-01-12T08:24:23.091Z,30.87
2019-01-12T08:26:49.800Z,31.90
2019-01-12T08:29:16.803Z,30.77
2019-01-12T08:31:43.611Z,31.03
2019-01-12T08:34:10.703Z,33.50
2019-01-12T08:36:37.394Z,32.10
2019-01-12T08:39:05.851Z,30.00
2019-01-12T08:41:32.547Z,31.47
2019-01-12T08:43:59.267Z,32.33
2019-01-12T08:46:25.982Z,31.93
2019-01-12T08:48:52.679Z,31.53
2019-01-12T08:51:19.816Z,30.37
2019-01-12T08:53:46.511Z,31.70
2019-01-12T08:56:13.250Z,30.90
2019-01-12T08:58:39.972Z,31.33
2019-01-12T09:01:08.683Z,29.00
2019-01-12T09:03:35.384Z,31.43
2019-01-12T09:06:02.314Z,29.83
2019-01-12T09:08:48.651Z,31.17
2019-01-12T09:11:15.463Z,29.67
2019-01-12T09:13:42.154Z,33.67
2019-01-12T09:16:08.887Z,30.13
2019-01-12T09:18:35.567Z,28.50
2019-01-12T09:21:02.831Z,31.97
2019-01-12T09:23:29.527Z,29.80
2019-01-12T09:25:56.227Z,30.80
2019-01-12T09:28:22.928Z,31.20
2019-01-12T09:30:49.746Z,31.37
2019-01-12T09:33:16.447Z,32.60
2019-01-12T09:35:43.247Z,31.03
2019-01-12T09:38:09.939Z,31.93
2019-01-12T09:40:36.731Z,32.50
2019-01-12T09:43:03.669Z,33.07
2019-01-12T09:45:30.379Z,28.83
2019-01-12T09:47:57.079Z,29.80
2019-01-12T09:50:23.880Z,30.83
2019-01-12T09:52:50.787Z,33.07
2019-01-12T09:55:17.613Z,32.20
2019-01-12T09:57:44.659Z,30.50
2019-01-12T10:00:14.924Z,32.90
2019-01-12T10:02:41.734Z,32.27
2019-01-12T10:05:09.586Z,30.77
2019-01-12T10:07:36.331Z,30.73
2019-01-12T10:10:05.603Z,28.97
2019-01-12T10:12:32.410Z,29.97
2019-01-12T10:14:59.115Z,29.57
2019-01-12T10:17:26.007Z,30.03
2019-01-12T10:19:52.712Z,29.50
2019-01-12T10:22:19.494Z,27.80
2019-01-12T10:24:46.195Z,27.43
2019-01-12T10:27:13.148Z,29.43
2019-01-12T10:29:40.011Z,29.13
2019-01-12T10:32:06.712Z,26.20
2019-01-12T10:34:33.524Z,30.47
2019-01-12T10:37:00.231Z,32.93
2019-01-12T10:39:27.020Z,29.77
2019-01-12T10:41:53.828Z,29.13
2019-01-12T10:44:20.638Z,29.17
2019-01-12T10:46:47.335Z,26.73
2019-01-12T10:49:14.287Z,27.70
2019-01-12T10:51:40.979Z,27.30
2019-01-12T10:54:07.679Z,27.93
2019-01-12T10:56:34.383Z,27.77
2019-01-12T10:59:01.339Z,28.97
2019-01-12T11:01:28.027Z,29.67
2019-01-12T11:03:54.731Z,31.43
2019-01-12T11:06:21.435Z,30.27
2019-01-12T11:08:48.300Z,32.43
2019-01-12T11:11:15.067Z,27.33
2019-01-12T11:13:41.754Z,32.33
2019-01-12T11:16:08.568Z,29.37
2019-01-12T11:18:35.476Z,32.20
2019-01-12T11:21:02.297Z,30.97
2019-01-12T11:23:29.012Z,29.50
2019-01-12T11:25:55.825Z,33.93
2019-01-12T11:28:22.543Z,31.47
2019-01-12T11:30:49.246Z,33.00
2019-01-12T11:33:15.947Z,32.17
2019-01-12T11:35:42.648Z,32.03
2019-01-12T11:38:09.359Z,29.27
2019-01-12T11:40:36.056Z,31.93
2019-01-12T11:43:03.268Z,31.83
2019-01-12T11:45:29.984Z,32.00
2019-01-12T11:47:56.795Z,29.73
2019-01-12T11:50:23.923Z,29.67
2019-01-12T11:52:51.244Z,32.23
2019-01-12T11:55:18.618Z,25.73
2019-01-12T11:57:45.425Z,23.23
2019-01-12T12:00:15.359Z,23.90
2019-01-12T12:02:42.187Z,25.07
2019-01-12T12:05:09.127Z,28.07
2019-01-12T12:07:35.839Z,24.33
2019-01-12T12:10:03.918Z,23.00
2019-01-12T12:12:30.611Z,24.97
2019-01-12T12:14:57.311Z,21.30
2019-01-12T12:17:24.019Z,22.83
2019-01-12T12:19:50.732Z,20.70
2019-01-12T12:22:17.443Z,20.63
2019-01-12T12:24:44.158Z,22.97
2019-01-12T12:27:10.882Z,19.17
2019-01-12T12:29:37.632Z,20.17
2019-01-12T12:32:04.383Z,20.97
2019-01-12T12:34:31.096Z,20.87
2019-01-12T12:36:57.806Z,18.90
2019-01-12T12:39:24.521Z,19.90
2019-01-12T12:41:51.231Z,19.43
2019-01-12T12:44:17.932Z,19.27
2019-01-12T12:46:44.676Z,19.37
2019-01-12T12:49:11.551Z,19.63
2019-01-12T12:51:38.363Z,18.83
2019-01-12T12:54:05.210Z,20.57
2019-01-12T12:56:32.111Z,21.77
2019-01-12T12:58:58.921Z,20.17
2019-01-12T13:01:25.643Z,22.17
2019-01-12T13:03:52.347Z,22.70
2019-01-12T13:06:19.155Z,20.73
2019-01-12T13:08:48.532Z,20.90
2019-01-12T13:11:14.467Z,22.43
2019-01-12T13:13:41.369Z,20.83
2019-01-12T13:16:08.180Z,20.13
2019-01-12T13:18:34.991Z,21.80
2019-01-12T13:21:02.024Z,23.17
2019-01-12T13:23:29.076Z,19.27
2019-01-12T13:25:55.784Z,23.27
2019-01-12T13:28:22.504Z,25.33
2019-01-12T13:30:49.604Z,21.70
2019-01-12T13:33:16.313Z,21.73
2019-01-12T13:35:43.116Z,21.50
2019-01-12T13:38:09.820Z,26.87
2019-01-12T13:40:36.534Z,22.57
2019-01-12T13:43:03.442Z,23.17
2019-01-12T13:45:30.247Z,21.27
2019-01-12T13:47:57.005Z,24.23
2019-01-12T13:50:26.031Z,22.93
2019-01-12T13:52:52.841Z,23.40
2019-01-12T13:55:19.667Z,21.83
2019-01-12T13:57:47.935Z,23.60
2019-01-12T14:00:29.695Z,24.73
2019-01-12T14:02:56.515Z,25.90
2019-01-12T14:05:23.519Z,24.83
2019-01-12T14:07:56.172Z,24.40
2019-01-12T14:10:20.367Z,23.03
2019-01-12T14:12:47.279Z,24.43
2019-01-12T14:15:14.837Z,29.67
2019-01-12T14:17:41.659Z,25.83
2019-01-12T14:20:12.417Z,24.37
2019-01-12T14:22:39.115Z,24.90
2019-01-12T14:25:06.023Z,25.03
2019-01-12T14:27:32.737Z,24.60
2019-01-12T14:29:59.464Z,20.53
2019-01-12T14:32:26.278Z,23.87
2019-01-12T14:34:52.992Z,21.47
2019-01-12T14:37:19.715Z,20.60
2019-01-12T14:39:46.543Z,19.20
2019-01-12T14:42:13.268Z,20.10
2019-01-12T14:44:39.985Z,22.03
2019-01-12T14:47:06.799Z,18.80
2019-01-12T14:49:33.512Z,15.63
2019-01-12T14:52:00.323Z,14.67
2019-01-12T14:54:27.028Z,16.27
2019-01-12T14:56:53.855Z,13.83
2019-01-12T14:59:20.579Z,14.97
2019-01-12T15:01:47.376Z,15.27
2019-01-12T15:04:14.131Z,14.00
2019-01-12T15:06:40.843Z,11.73
2019-01-12T15:09:07.692Z,12.30
2019-01-12T15:11:34.371Z,12.73
2019-01-12T15:14:01.178Z,11.77
2019-01-12T15:16:27.897Z,13.00
2019-01-12T15:18:54.612Z,13.37
2019-01-12T15:21:21.323Z,13.20
2019-01-12T15:23:48.028Z,11.63
2019-01-12T15:26:14.736Z,15.67
2019-01-12T15:28:41.444Z,14.03
2019-01-12T15:31:08.243Z,16.50
2019-01-12T15:33:34.951Z,15.00
2019-01-12T15:36:01.755Z,13.87
2019-01-12T15:38:29.877Z,13.87
2019-01-12T15:40:56.899Z,12.03
2019-01-12T15:43:23.611Z,13.90
2019-01-12T15:45:50.311Z,19.27
2019-01-12T15:48:17.118Z,12.23
2019-01-12T15:50:43.836Z,11.53
2019-01-12T15:53:10.594Z,15.60
2019-01-12T15:55:37.451Z,14.00
2019-01-12T15:58:04.167Z,10.80
2019-01-12T16:00:31.072Z,14.63
2019-01-12T16:02:57.975Z,13.37
2019-01-12T16:05:25.823Z,14.80
2019-01-12T16:07:52.740Z,16.53
2019-01-12T16:10:19.642Z,14.23
2019-01-12T16:12:46.455Z,10.80
2019-01-12T16:15:16.076Z,10.83
2019-01-12T16:17:42.983Z,11.70
2019-01-12T16:20:15.899Z,14.13
2019-01-12T16:22:42.708Z,10.23
2019-01-12T16:25:10.086Z,11.00
2019-01-12T16:27:36.996Z,13.87
2019-01-12T16:30:06.322Z,10.53
2019-01-12T16:32:33.119Z,13.93
2019-01-12T16:34:59.836Z,16.33
2019-01-12T16:37:26.552Z,13.70
2019-01-12T16:39:53.267Z,9.57
2019-01-12T16:42:19.975Z,10.03
2019-01-12T16:44:46.682Z,9.87
2019-01-12T16:47:13.435Z,10.87
2019-01-12T16:49:40.143Z,13.50
2019-01-12T16:52:06.851Z,11.37
2019-01-12T16:54:33.560Z,11.97
2019-01-12T16:57:00.272Z,10.00
2019-01-12T16:59:27.285Z,9.87
2019-01-12T17:01:53.997Z,9.17
2019-01-12T17:04:20.735Z,8.40
2019-01-12T17:06:47.439Z,9.07
2019-01-12T17:09:14.160Z,10.23
2019-01-12T17:11:40.867Z,9.33
2019-01-12T17:14:07.579Z,11.43
2019-01-12T17:16:34.291Z,19.37
2019-01-12T17:19:01.000Z,9.40
2019-01-12T17:21:27.707Z,10.30
2019-01-12T17:23:54.416Z,11.27
2019-01-12T17:26:21.223Z,17.23
2019-01-12T17:28:47.935Z,13.50
2019-01-12T17:31:14.668Z,12.83
2019-01-12T17:33:41.387Z,11.63
2019-01-12T17:36:08.099Z,11.90
2019-01-12T17:38:34.828Z,11.43
2019-01-12T17:41:01.526Z,10.13
2019-01-12T17:43:28.242Z,10.50
2019-01-12T17:45:54.956Z,11.10
2019-01-12T17:48:21.655Z,14.47
2019-01-12T17:50:48.388Z,15.43
2019-01-12T17:53:15.091Z,13.13
2019-01-12T17:55:42.231Z,13.53
2019-01-12T17:58:09.267Z,11.43
2019-01-12T18:00:55.651Z,12.53
2019-01-12T18:03:22.344Z,11.03
2019-01-12T18:05:49.143Z,13.10
2019-01-12T18:08:15.947Z,11.77
2019-01-12T18:10:42.659Z,10.47
2019-01-12T18:13:09.484Z,17.17
2019-01-12T18:15:36.207Z,11.27
2019-01-12T18:18:03.715Z,14.13
2019-01-12T18:20:30.419Z,10.50
2019-01-12T18:22:57.136Z,13.03
2019-01-12T18:25:23.931Z,16.20
2019-01-12T18:27:51.044Z,9.37
2019-01-12T18:30:18.883Z,8.90
2019-01-12T18:32:45.599Z,17.77
2019-01-12T18:35:12.512Z,13.43
2019-01-12T18:37:39.217Z,12.17
2019-01-12T18:40:09.300Z,13.27
2019-01-12T18:42:36.003Z,12.97
2019-01-12T18:45:03.706Z,14.80
2019-01-12T18:47:30.403Z,12.70
2019-01-12T18:49:57.106Z,15.93
2019-01-12T18:52:23.820Z,11.27
2019-01-12T18:54:50.519Z,11.73
2019-01-12T18:57:17.286Z,14.00
2019-01-12T18:59:43.995Z,13.57
2019-01-12T19:02:10.703Z,14.77
2019-01-12T19:04:37.408Z,13.13
2019-01-12T19:07:04.315Z,10.67
2019-01-12T19:09:31.043Z,9.33
2019-01-12T19:11:57.751Z,13.47
2019-01-12T19:14:24.443Z,14.93
2019-01-12T19:16:51.242Z,9.77
2019-01-12T19:19:17.947Z,11.03
2019-01-12T19:21:44.663Z,15.20
2019-01-12T19:24:11.617Z,12.50
2019-01-12T19:26:38.306Z,13.27
2019-01-12T19:29:06.463Z,11.77
2019-01-12T19:31:33.628Z,11.90
2019-01-12T19:34:00.345Z,15.97
2019-01-12T19:36:27.047Z,11.43
2019-01-12T19:38:53.751Z,11.83
2019-01-12T19:41:20.461Z,14.33
2019-01-12T19:43:47.175Z,13.43
2019-01-12T19:46:13.891Z,11.77
2019-01-12T19:48:40.592Z,13.97
2019-01-12T19:51:07.303Z,14.73
2019-01-12T19:53:34.003Z,11.83
2019-01-12T19:56:00.713Z,14.80
2019-01-12T19:58:27.419Z,14.60
2019-01-12T20:00:54.148Z,17.93
2019-01-12T20:03:20.851Z,10.47
2019-01-12T20:05:47.567Z,12.97
2019-01-12T20:08:14.410Z,14.07
2019-01-12T20:10:41.123Z,14.23
2019-01-12T20:13:07.925Z,14.10
2019-01-12T20:15:34.661Z,13.93
2019-01-12T20:18:01.476Z,13.53
2019-01-12T20:20:28.183Z,11.33
2019-01-12T20:22:55.109Z,15.03
2019-01-12T20:25:27.443Z,16.53
2019-01-12T20:27:54.292Z,12.30
2019-01-12T20:31:21.435Z,12.43
2019-01-12T20:34:01.588Z,11.63
2019-01-12T20:37:19.488Z,16.33
2019-01-12T20:40:12.851Z,19.63
2019-01-12T20:43:32.684Z,12.80
2019-01-12T20:46:32.604Z,14.80
2019-01-12T20:49:35.931Z,14.70
2019-01-12T20:52:53.499Z,13.80
2019-01-12T20:55:43.023Z,16.03
2019-01-12T20:58:52.761Z,12.67
2019-01-12T21:02:04.835Z,14.10
2019-01-12T21:04:46.999Z,11.27
2019-01-12T21:08:07.817Z,11.87
2019-01-12T21:11:17.777Z,15.37
2019-01-12T21:14:14.563Z,12.87
2019-01-12T21:16:45.700Z,12.07
2019-01-12T21:19:12.422Z,12.07
2019-01-12T21:21:39.554Z,13.43
2019-01-12T21:24:06.272Z,13.00
2019-01-12T21:26:33.199Z,13.47
2019-01-12T21:28:59.906Z,15.67
2019-01-12T21:31:27.739Z,13.33
2019-01-12T21:33:54.473Z,13.17
2019-01-12T21:36:21.390Z,13.50
2019-01-12T21:38:48.113Z,14.97
2019-01-12T21:41:14.831Z,13.23
2019-01-12T21:43:41.523Z,15.87
2019-01-12T21:46:08.245Z,15.23
2019-01-12T21:48:34.948Z,15.03
2019-01-12T21:51:01.999Z,16.70
2019-01-12T21:53:31.124Z,15.37
2019-01-12T21:55:57.940Z,16.50
2019-01-12T21:58:24.662Z,22.70
2019-01-12T22:00:51.371Z,15.53
2019-01-12T22:03:18.105Z,14.43
2019-01-12T22:05:44.798Z,16.73
2019-01-12T22:08:11.533Z,15.07
2019-01-12T22:10:38.243Z,17.63
2019-01-12T22:13:05.156Z,17.97
2019-01-12T22:15:31.966Z,13.20
2019-01-12T22:17:58.675Z,18.27
2019-01-12T22:20:25.375Z,15.80
2019-01-12T22:22:52.324Z,17.00
2019-01-12T22:25:19.139Z,11.57
2019-01-12T22:27:46.167Z,17.47
2019-01-12T22:30:14.997Z,14.93
2019-01-12T22:32:41.903Z,14.13
2019-01-12T22:35:08.811Z,18.80
2019-01-12T22:37:35.526Z,13.73
2019-01-12T22:40:03.867Z,16.27
2019-01-12T22:42:30.578Z,15.50
2019-01-12T22:44:57.307Z,16.57
2019-01-12T22:47:24.023Z,17.57
2019-01-12T22:49:50.941Z,14.57
2019-01-12T22:52:17.759Z,16.93
2019-01-12T22:54:44.468Z,14.60
2019-01-12T22:57:11.178Z,17.03
2019-01-12T22:59:37.894Z,13.10
2019-01-12T23:02:06.219Z,15.47
2019-01-12T23:04:33.767Z,17.50
2019-01-12T23:07:00.667Z,14.33
2019-01-12T23:09:27.583Z,19.57
2019-01-12T23:11:54.387Z,20.00
2019-01-12T23:14:21.429Z,24.67
2019-01-12T23:16:48.233Z,29.23
2019-01-12T23:19:15.041Z,20.30
2019-01-12T23:21:41.847Z,24.23
2019-01-12T23:24:08.667Z,22.60
2019-01-12T23:26:35.474Z,19.63
2019-01-12T23:29:03.207Z,19.10
2019-01-12T23:31:30.017Z,18.63
2019-01-12T23:33:56.825Z,19.57
2019-01-12T23:36:23.533Z,21.27
2019-01-12T23:38:50.240Z,23.27
2019-01-12T23:41:17.160Z,19.37
2019-01-12T23:43:43.863Z,16.47
2019-01-12T23:46:10.567Z,20.47
2019-01-12T23:48:37.282Z,20.60
2019-01-12T23:51:03.994Z,20.77
2019-01-12T23:53:30.696Z,22.00
2019-01-12T23:55:57.516Z,21.37
2019-01-12T23:58:24.334Z,23.80
